createdAt,value
2018-09-02T00:00:25.149Z,74.70
2018-09-02T00:03:01.951Z,73.77
2018-09-02T00:05:37.776Z,73.77
2018-09-02T00:08:13.722Z,74.72
2018-09-02T00:10:49.576Z,75.07
2018-09-02T00:13:25.433Z,76.33
2018-09-02T00:16:01.369Z,78.42
2018-09-02T00:18:37.310Z,78.93
2018-09-02T00:21:13.262Z,76.90
2018-09-02T00:23:49.463Z,77.76
2018-09-02T00:26:25.172Z,78.25
2018-09-02T00:29:00.945Z,77.43
2018-09-02T00:31:37.280Z,77.78
2018-09-02T00:34:13.277Z,78.49
2018-09-02T00:36:49.019Z,77.91
2018-09-02T00:39:25.696Z,79.12
2018-09-02T00:42:01.325Z,79.19
2018-09-02T00:44:37.666Z,77.40
2018-09-02T00:47:13.460Z,77.95
2018-09-02T00:49:49.216Z,77.92
2018-09-02T00:52:25.436Z,76.01
2018-09-02T00:55:01.229Z,74.60
2018-09-02T00:57:37.084Z,74.77
2018-09-02T01:00:13.653Z,76.24
2018-09-02T01:02:49.409Z,77.22
2018-09-02T01:05:25.516Z,76.15
2018-09-02T01:08:01.340Z,76.38
2018-09-02T01:10:37.282Z,76.90
2018-09-02T01:13:13.529Z,78.43
2018-09-02T01:15:49.302Z,79.10
2018-09-02T01:18:25.136Z,80.91
2018-09-02T01:21:01.779Z,81.48
2018-09-02T01:23:38.405Z,79.86
2018-09-02T01:26:14.220Z,78.65
2018-09-02T01:28:50.075Z,78.42
2018-09-02T01:31:26.091Z,76.79
2018-09-02T01:34:02.619Z,77.40
2018-09-02T01:36:38.570Z,78.41
2018-09-02T01:39:15.414Z,77.93
2018-09-02T01:43:15.557Z,79.54
2018-09-02T01:45:51.389Z,81.47
2018-09-02T01:48:27.186Z,81.43
2018-09-02T01:51:02.954Z,81.00
2018-09-02T01:53:38.838Z,81.01
2018-09-02T01:56:15.200Z,80.76
2018-09-02T01:58:51.472Z,81.21
2018-09-02T02:01:27.520Z,81.09
2018-09-02T02:04:03.522Z,79.81
2018-09-02T02:06:39.297Z,79.81
2018-09-02T02:09:15.185Z,78.84
2018-09-02T02:11:50.997Z,78.25
2018-09-02T02:14:26.938Z,77.63
2018-09-02T02:17:03.896Z,78.90
2018-09-02T02:19:39.996Z,79.27
2018-09-02T02:22:15.722Z,80.20
2018-09-02T02:24:51.487Z,80.08
2018-09-02T02:27:27.339Z,81.12
2018-09-02T02:30:03.453Z,81.17
2018-09-02T02:32:39.274Z,81.25
2018-09-02T02:35:15.151Z,82.84
2018-09-02T02:37:50.886Z,83.19
2018-09-02T02:40:26.697Z,82.96
2018-09-02T02:43:02.483Z,85.57
2018-09-02T02:45:38.786Z,86.41
2018-09-02T02:48:14.679Z,86.61
2018-09-02T02:50:50.623Z,85.31
2018-09-02T02:53:27.153Z,86.26
2018-09-02T02:56:02.887Z,86.10
2018-09-02T02:58:39.070Z,86.73
2018-09-02T03:01:15.003Z,86.50
2018-09-02T03:03:50.746Z,85.62
2018-09-02T03:06:27.424Z,84.31
2018-09-02T03:09:03.871Z,83.65
2018-09-02T03:11:40.085Z,82.32
2018-09-02T03:14:15.858Z,81.56
2018-09-02T03:16:51.711Z,79.91
2018-09-02T03:19:27.625Z,79.36
2018-09-02T03:22:03.420Z,78.20
2018-09-02T03:24:39.162Z,77.27
2018-09-02T03:27:14.981Z,77.68
2018-09-02T03:29:50.762Z,78.34
2018-09-02T03:32:26.623Z,79.20
2018-09-02T03:35:02.878Z,78.96
2018-09-02T03:37:38.784Z,77.90
2018-09-02T03:40:14.518Z,78.70
2018-09-02T03:42:50.271Z,79.06
2018-09-02T03:45:26.033Z,78.22
2018-09-02T03:48:02.017Z,80.10
2018-09-02T03:50:37.714Z,81.68
2018-09-02T03:53:13.532Z,83.41
2018-09-02T03:55:49.246Z,83.29
2018-09-02T03:58:25.701Z,83.22
2018-09-02T04:01:03.501Z,82.40
2018-09-02T04:03:40.204Z,81.87
2018-09-02T04:06:16.230Z,82.94
2018-09-02T04:08:51.892Z,84.01
2018-09-02T04:11:28.127Z,83.83
2018-09-02T04:14:04.607Z,83.69
2018-09-02T04:16:45.350Z,84.07
2018-09-02T04:19:21.269Z,83.59
2018-09-02T04:21:57.944Z,83.76
2018-09-02T04:24:33.790Z,84.17
2018-09-02T04:27:09.701Z,85.64
2018-09-02T04:29:45.558Z,84.73
2018-09-02T04:32:21.327Z,85.11
2018-09-02T04:34:57.330Z,84.71
2018-09-02T04:37:45.206Z,82.55
2018-09-02T04:40:21.962Z,81.17
2018-09-02T04:42:57.733Z,80.41
2018-09-02T04:45:33.387Z,80.05
2018-09-02T04:48:10.066Z,80.30
2018-09-02T04:50:50.095Z,79.39
2018-09-02T04:53:25.817Z,79.38
2018-09-02T04:56:02.266Z,80.11
2018-09-02T04:58:38.028Z,80.77
2018-09-02T05:01:13.844Z,81.18
2018-09-02T05:03:49.774Z,80.14
2018-09-02T05:06:26.279Z,79.31
2018-09-02T05:09:02.038Z,77.64
2018-09-02T05:11:38.144Z,74.77
2018-09-02T05:14:23.095Z,73.85
2018-09-02T05:16:59.046Z,74.09
2018-09-02T05:19:35.646Z,74.17
2018-09-02T05:22:13.494Z,72.94
2018-09-02T05:24:49.921Z,72.63
2018-09-02T05:27:26.939Z,72.45
2018-09-02T05:30:03.874Z,71.75
2018-09-02T05:32:39.702Z,70.54
2018-09-02T05:35:15.533Z,69.90
2018-09-02T05:37:52.257Z,69.02
2018-09-02T05:40:36.977Z,69.19
2018-09-02T05:43:14.648Z,68.81
2018-09-02T05:45:50.511Z,67.50
2018-09-02T05:48:29.271Z,68.68
2018-09-02T05:51:04.908Z,65.52
2018-09-02T05:53:45.711Z,63.84
2018-09-02T05:56:21.465Z,62.00
2018-09-02T06:00:21.406Z,61.04
2018-09-02T06:02:57.290Z,60.06
2018-09-02T06:05:33.186Z,58.51
2018-09-02T06:08:09.109Z,58.06
2018-09-02T06:10:46.684Z,58.40
2018-09-02T06:13:22.309Z,58.66
2018-09-02T06:15:58.536Z,58.37
2018-09-02T06:18:29.600Z,55.92
2018-09-02T06:21:00.488Z,54.78
2018-09-02T06:23:33.568Z,56.93
2018-09-02T06:26:04.387Z,57.21
2018-09-02T06:28:37.228Z,56.89
2018-09-02T06:31:09.130Z,55.29
2018-09-02T06:33:40.866Z,56.39
2018-09-02T06:36:14.132Z,56.14
2018-09-02T06:38:45.098Z,56.68
2018-09-02T06:41:15.938Z,54.69
2018-09-02T06:43:47.948Z,54.46
2018-09-02T06:46:19.172Z,53.93
2018-09-02T06:48:50.101Z,54.05
2018-09-02T06:51:24.522Z,52.43
2018-09-02T06:53:55.522Z,52.87
2018-09-02T06:56:26.333Z,51.34
2018-09-02T06:58:58.102Z,50.49
2018-09-02T07:01:31.289Z,49.95
2018-09-02T07:04:02.531Z,48.94
2018-09-02T07:06:35.903Z,47.95
2018-09-02T07:09:09.081Z,47.04
2018-09-02T07:11:39.916Z,46.49
2018-09-02T07:14:10.734Z,46.67
2018-09-02T07:16:42.293Z,46.30
2018-09-02T07:19:15.596Z,46.69
2018-09-02T07:21:48.283Z,46.99
2018-09-02T07:24:19.507Z,47.81
2018-09-02T07:26:53.981Z,46.85
2018-09-02T07:29:24.921Z,46.44
2018-09-02T07:31:56.549Z,45.90
2018-09-02T07:34:27.388Z,44.42
2018-09-02T07:36:58.240Z,45.36
2018-09-02T07:39:29.076Z,44.42
2018-09-02T07:41:59.938Z,43.72
2018-09-02T07:44:34.588Z,43.70
2018-09-02T07:47:05.458Z,43.45
2018-09-02T07:49:36.405Z,43.11
2018-09-02T07:52:07.230Z,42.95
2018-09-02T07:54:39.325Z,41.36
2018-09-02T07:57:10.454Z,41.89
2018-09-02T07:59:42.195Z,40.55
2018-09-02T08:02:13.044Z,41.96
2018-09-02T08:04:43.860Z,41.50
2018-09-02T08:07:14.752Z,41.28
2018-09-02T08:09:45.557Z,39.72
2018-09-02T08:12:16.527Z,39.83
2018-09-02T08:14:47.588Z,40.41
2018-09-02T08:17:18.833Z,41.05
2018-09-02T08:19:50.314Z,38.14
2018-09-02T08:22:21.403Z,37.11
2018-09-02T08:24:52.591Z,38.31
2018-09-02T08:27:23.411Z,37.41
2018-09-02T08:29:54.202Z,37.50
2018-09-02T08:32:25.440Z,36.73
2018-09-02T08:34:56.325Z,37.36
2018-09-02T08:37:27.217Z,35.69
2018-09-02T08:39:58.199Z,34.96
2018-09-02T08:42:29.056Z,35.33
2018-09-02T08:45:00.327Z,34.30
2018-09-02T08:47:31.173Z,33.54
2018-09-02T08:50:01.982Z,32.90
2018-09-02T08:52:32.848Z,32.88
2018-09-02T08:55:03.727Z,32.71
2018-09-02T08:57:34.569Z,32.03
2018-09-02T09:00:10.409Z,31.88
2018-09-02T09:02:42.408Z,30.57
2018-09-02T09:05:13.659Z,31.63
2018-09-02T09:07:44.833Z,32.27
2018-09-02T09:10:15.771Z,29.16
2018-09-02T09:12:46.602Z,29.41
2018-09-02T09:15:17.395Z,28.76
2018-09-02T09:17:48.530Z,29.69
2018-09-02T09:20:19.451Z,28.21
2018-09-02T09:22:50.360Z,28.71
2018-09-02T09:25:21.183Z,27.96
2018-09-02T09:27:52.407Z,27.95
2018-09-02T09:30:23.179Z,28.76
2018-09-02T09:32:54.219Z,30.05
2018-09-02T09:35:25.728Z,29.40
2018-09-02T09:37:56.627Z,30.15
2018-09-02T09:40:27.522Z,30.00
2018-09-02T09:42:58.989Z,28.56
2018-09-02T09:45:29.902Z,28.67
2018-09-02T09:48:00.761Z,27.95
2018-09-02T09:50:31.553Z,26.99
2018-09-02T09:53:03.219Z,28.03
2018-09-02T09:55:34.388Z,26.54
2018-09-02T09:58:05.485Z,26.13
2018-09-02T10:00:41.274Z,24.39
2018-09-02T10:03:12.141Z,25.17
2018-09-02T10:05:43.933Z,25.27
2018-09-02T10:08:15.333Z,24.32
2018-09-02T10:10:47.547Z,24.83
2018-09-02T10:13:19.015Z,24.19
2018-09-02T10:15:49.830Z,25.69
2018-09-02T10:18:20.911Z,25.26
2018-09-02T10:20:52.175Z,25.52
2018-09-02T10:23:23.052Z,24.91
2018-09-02T10:25:53.857Z,25.49
2018-09-02T10:28:24.790Z,25.13
2018-09-02T10:30:55.576Z,23.67
2018-09-02T10:33:27.699Z,23.84
2018-09-02T10:35:58.715Z,22.88
2018-09-02T10:38:29.633Z,23.13
2018-09-02T10:41:00.497Z,23.20
2018-09-02T10:43:31.763Z,23.84
2018-09-02T10:46:03.631Z,22.47
2018-09-02T10:48:34.533Z,22.37
2018-09-02T10:51:05.400Z,22.00
2018-09-02T10:53:36.336Z,22.13
2018-09-02T10:56:08.316Z,23.43
2018-09-02T10:58:40.383Z,25.56
2018-09-02T11:01:11.858Z,22.41
2018-09-02T11:03:43.461Z,21.55
2018-09-02T11:06:26.667Z,22.60
2018-09-02T11:09:13.013Z,23.41
2018-09-02T11:11:44.213Z,23.21
2018-09-02T11:14:15.868Z,22.38
2018-09-02T11:16:47.097Z,23.15
2018-09-02T11:19:17.944Z,23.31
2018-09-02T11:21:48.718Z,23.18
2018-09-02T11:24:19.586Z,22.42
2018-09-02T11:26:50.440Z,23.23
2018-09-02T11:29:21.925Z,23.46
2018-09-02T11:31:52.802Z,22.68
2018-09-02T11:34:23.752Z,23.45
2018-09-02T11:36:54.562Z,23.13
2018-09-02T11:39:26.997Z,23.64
2018-09-02T11:41:58.670Z,22.86
2018-09-02T11:44:29.614Z,22.38
2018-09-02T11:47:00.848Z,22.07
2018-09-02T11:49:33.888Z,23.82
2018-09-02T11:52:04.898Z,23.54
2018-09-02T11:54:35.800Z,21.93
2018-09-02T11:57:07.282Z,22.86
2018-09-02T11:59:38.763Z,22.13
2018-09-02T12:02:09.594Z,23.95
2018-09-02T12:04:45.260Z,23.15
2018-09-02T12:07:16.436Z,22.27
2018-09-02T12:09:47.320Z,22.00
2018-09-02T12:12:18.636Z,21.50
2018-09-02T12:14:49.572Z,21.79
2018-09-02T12:17:20.455Z,21.39
2018-09-02T12:19:51.362Z,21.11
2018-09-02T12:22:22.270Z,20.93
2018-09-02T12:24:53.606Z,21.20
2018-09-02T12:27:24.492Z,21.39
2018-09-02T12:29:55.295Z,22.62
2018-09-02T12:32:26.292Z,22.04
2018-09-02T12:34:57.194Z,21.57
2018-09-02T12:37:32.901Z,21.65
2018-09-02T12:40:03.807Z,21.81
2018-09-02T12:42:34.755Z,23.31
2018-09-02T12:45:06.633Z,19.66
2018-09-02T12:47:37.582Z,19.55
2018-09-02T12:50:08.629Z,19.39
2018-09-02T12:52:39.415Z,20.39
2018-09-02T12:55:10.544Z,19.08
2018-09-02T12:57:41.995Z,19.48
2018-09-02T13:00:12.840Z,19.87
2018-09-02T13:02:43.622Z,18.85
2018-09-02T13:05:16.738Z,19.45
2018-09-02T13:07:48.714Z,18.72
2018-09-02T13:10:20.242Z,19.63
2018-09-02T13:12:52.202Z,19.19
2018-09-02T13:15:23.483Z,19.87
2018-09-02T13:17:54.963Z,19.23
2018-09-02T13:20:30.333Z,19.20
2018-09-02T13:23:03.809Z,19.95
2018-09-02T13:25:41.067Z,19.60
2018-09-02T13:28:12.230Z,18.90
2018-09-02T13:30:45.028Z,19.42
2018-09-02T13:33:16.064Z,18.05
2018-09-02T13:35:46.959Z,20.17
2018-09-02T13:38:17.808Z,17.42
2018-09-02T13:40:50.492Z,17.24
2018-09-02T13:43:21.313Z,17.77
2018-09-02T13:45:52.407Z,16.63
2018-09-02T13:48:23.405Z,16.94
2018-09-02T13:50:55.145Z,15.38
2018-09-02T13:53:26.105Z,17.28
2018-09-02T13:55:57.011Z,15.21
2018-09-02T13:58:28.381Z,15.57
2018-09-02T14:00:59.220Z,14.67
2018-09-02T14:03:30.697Z,14.95
2018-09-02T14:06:01.529Z,15.29
2018-09-02T14:08:32.292Z,15.59
2018-09-02T14:11:04.049Z,15.22
2018-09-02T14:13:34.994Z,15.19
2018-09-02T14:16:05.914Z,15.20
2018-09-02T14:18:36.691Z,15.16
2018-09-02T14:21:07.541Z,15.39
2018-09-02T14:23:38.333Z,13.83
2018-09-02T14:26:14.200Z,12.76
2018-09-02T14:28:45.016Z,14.36
2018-09-02T14:31:15.852Z,13.23
2018-09-02T14:33:47.258Z,14.28
2018-09-02T14:36:18.101Z,14.95
2018-09-02T14:38:48.879Z,13.54
2018-09-02T14:41:19.775Z,13.28
2018-09-02T14:43:50.588Z,13.91
2018-09-02T14:46:21.520Z,13.16
2018-09-02T14:48:52.623Z,13.42
2018-09-02T14:51:23.496Z,13.91
2018-09-02T14:53:55.217Z,14.18
2018-09-02T14:56:26.865Z,14.79
2018-09-02T14:58:57.900Z,16.35
2018-09-02T15:01:28.886Z,17.83
2018-09-02T15:03:59.751Z,19.27
2018-09-02T15:06:30.723Z,19.60
2018-09-02T15:09:02.791Z,20.23
2018-09-02T15:11:33.701Z,20.05
2018-09-02T15:14:04.687Z,21.37
2018-09-02T15:16:35.708Z,22.31
2018-09-02T15:19:10.020Z,21.02
2018-09-02T15:21:41.069Z,21.24
2018-09-02T15:24:11.868Z,22.01
2018-09-02T15:26:42.741Z,21.75
2018-09-02T15:29:14.426Z,21.80
2018-09-02T15:31:47.914Z,23.24
2018-09-02T15:34:18.681Z,20.89
2018-09-02T15:36:50.121Z,21.24
2018-09-02T15:39:20.970Z,22.22
2018-09-02T15:41:52.026Z,22.63
2018-09-02T15:44:22.931Z,23.39
2018-09-02T15:46:53.768Z,23.37
2018-09-02T15:49:24.584Z,23.36
2018-09-02T15:51:55.685Z,23.95
2018-09-02T15:54:26.454Z,23.33
2018-09-02T15:56:57.346Z,24.19
2018-09-02T15:59:28.211Z,23.74
2018-09-02T16:01:59.024Z,24.41
2018-09-02T16:04:29.797Z,24.66
2018-09-02T16:07:00.742Z,24.77
2018-09-02T16:09:31.667Z,25.43
2018-09-02T16:12:02.525Z,25.44
2018-09-02T16:14:34.324Z,25.23
2018-09-02T16:17:05.972Z,25.72
2018-09-02T16:19:37.490Z,25.98
2018-09-02T16:22:08.315Z,26.20
2018-09-02T16:24:39.113Z,26.22
2018-09-02T16:27:09.978Z,25.69
2018-09-02T16:29:40.938Z,26.46
2018-09-02T16:32:12.296Z,26.62
2018-09-02T16:34:43.241Z,26.38
2018-09-02T16:37:19.126Z,27.04
2018-09-02T16:39:55.047Z,29.78
2018-09-02T16:42:31.748Z,30.95
2018-09-02T16:45:02.826Z,31.52
2018-09-02T16:47:34.340Z,32.08
2018-09-02T16:50:05.313Z,31.64
2018-09-02T16:52:36.152Z,32.20
2018-09-02T16:55:07.959Z,32.58
2018-09-02T16:57:39.493Z,32.94
2018-09-02T17:00:10.747Z,33.70
2018-09-02T17:02:41.585Z,34.16
2018-09-02T17:05:20.053Z,34.17
2018-09-02T17:07:52.485Z,34.58
2018-09-02T17:11:47.891Z,34.10
2018-09-02T17:14:18.889Z,34.48
2018-09-02T17:16:51.058Z,34.95
2018-09-02T17:19:29.826Z,35.74
2018-09-02T17:22:01.398Z,36.97
2018-09-02T17:24:32.325Z,38.49
2018-09-02T17:27:03.175Z,38.05
2018-09-02T17:29:34.089Z,37.59
2018-09-02T17:32:09.348Z,37.00
2018-09-02T17:34:40.212Z,37.35
2018-09-02T17:37:11.310Z,37.46
2018-09-02T17:39:42.152Z,38.50
2018-09-02T17:42:13.768Z,38.25
2018-09-02T17:44:45.465Z,39.57
2018-09-02T17:47:16.269Z,38.80
2018-09-02T17:49:47.133Z,39.78
2018-09-02T17:52:17.956Z,39.66
2018-09-02T17:54:48.943Z,40.52
2018-09-02T17:57:32.602Z,41.56
2018-09-02T18:00:03.636Z,40.65
2018-09-02T18:02:34.550Z,39.96
2018-09-02T18:05:05.493Z,41.88
2018-09-02T18:07:43.875Z,42.72
2018-09-02T18:10:14.863Z,44.08
2018-09-02T18:12:45.810Z,45.24
2018-09-02T18:15:16.843Z,46.77
2018-09-02T18:17:47.648Z,48.62
2018-09-02T18:20:18.564Z,47.75
2018-09-02T18:22:49.363Z,48.79
2018-09-02T18:25:21.506Z,48.30
2018-09-02T18:27:55.486Z,47.95
2018-09-02T18:30:26.842Z,47.57
2018-09-02T18:32:58.403Z,46.91
2018-09-02T18:35:29.929Z,48.66
2018-09-02T18:38:00.791Z,43.75
2018-09-02T18:40:32.542Z,42.52
2018-09-02T18:43:03.368Z,45.91
2018-09-02T18:46:58.848Z,46.64
2018-09-02T18:49:29.713Z,46.66
2018-09-02T18:52:00.661Z,44.44
2018-09-02T18:54:33.411Z,45.90
2018-09-02T18:57:04.376Z,44.36
2018-09-02T18:59:35.353Z,48.32
2018-09-02T19:02:06.460Z,50.89
2018-09-02T19:04:37.388Z,50.34
2018-09-02T19:07:08.746Z,50.38
2018-09-02T19:09:39.715Z,49.98
2018-09-02T19:12:10.829Z,51.10
2018-09-02T19:14:42.435Z,50.54
2018-09-02T19:17:13.560Z,52.30
2018-09-02T19:19:44.360Z,52.33
2018-09-02T19:22:15.303Z,52.58
2018-09-02T19:24:46.100Z,52.24
2018-09-02T19:27:17.641Z,51.20
2018-09-02T19:29:49.235Z,51.22
2018-09-02T19:32:21.060Z,52.39
2018-09-02T19:34:52.055Z,51.08
2018-09-02T19:37:22.947Z,53.11
2018-09-02T19:39:53.795Z,53.59
2018-09-02T19:42:24.706Z,53.14
2018-09-02T19:44:57.126Z,53.01
2018-09-02T19:47:29.208Z,53.96
2018-09-02T19:50:00.809Z,54.69
2018-09-02T19:52:32.602Z,54.41
2018-09-02T19:55:03.753Z,54.73
2018-09-02T19:57:34.838Z,55.78
2018-09-02T20:00:12.067Z,56.23
2018-09-02T20:02:47.818Z,56.79
2018-09-02T20:05:26.092Z,57.74
2018-09-02T20:08:02.913Z,59.18
2018-09-02T20:10:39.152Z,58.59
2018-09-02T20:13:14.996Z,58.62
2018-09-02T20:15:50.662Z,57.95
2018-09-02T20:18:27.371Z,58.36
2018-09-02T20:21:03.270Z,58.43
2018-09-02T20:23:39.164Z,57.77
2018-09-02T20:26:15.192Z,58.42
2018-09-02T20:28:52.225Z,58.27
2018-09-02T20:31:28.227Z,58.74
2018-09-02T20:34:04.044Z,59.30
2018-09-02T20:36:39.837Z,59.03
2018-09-02T20:39:16.470Z,58.89
2018-09-02T20:41:52.204Z,58.69
2018-09-02T20:44:28.208Z,60.82
2018-09-02T20:47:04.099Z,61.49
2018-09-02T20:49:39.729Z,61.49
2018-09-02T20:52:15.527Z,63.17
2018-09-02T20:54:51.649Z,63.26
2018-09-02T20:57:27.474Z,63.18
2018-09-02T21:00:03.445Z,62.66
2018-09-02T21:02:40.079Z,63.06
2018-09-02T21:05:16.785Z,63.41
2018-09-02T21:07:52.921Z,64.15
2018-09-02T21:10:28.899Z,63.96
2018-09-02T21:13:04.873Z,63.05
2018-09-02T21:15:41.510Z,63.76
2018-09-02T21:18:17.263Z,63.87
2018-09-02T21:20:53.662Z,62.69
2018-09-02T21:23:29.434Z,62.56
2018-09-02T21:26:05.441Z,62.33
2018-09-02T21:28:41.375Z,62.48
2018-09-02T21:31:17.622Z,61.89
2018-09-02T21:33:54.818Z,62.35
2018-09-02T21:36:30.832Z,63.67
2018-09-02T21:39:11.656Z,65.01
2018-09-02T21:41:47.714Z,65.70
2018-09-02T21:44:23.619Z,66.46
2018-09-02T21:47:00.336Z,66.31
2018-09-02T21:49:36.079Z,66.11
2018-09-02T21:52:11.883Z,65.90
2018-09-02T21:54:47.756Z,64.50
2018-09-02T21:57:23.889Z,64.23
2018-09-02T22:00:05.542Z,63.39
2018-09-02T22:02:42.973Z,63.51
2018-09-02T22:05:19.171Z,63.44
2018-09-02T22:07:55.089Z,65.07
2018-09-02T22:10:30.857Z,66.38
2018-09-02T22:13:07.231Z,65.72
2018-09-02T22:15:43.477Z,65.71
2018-09-02T22:18:19.890Z,65.67
2018-09-02T22:20:55.833Z,65.77
2018-09-02T22:23:31.732Z,65.53
2018-09-02T22:26:07.463Z,65.74
2018-09-02T22:28:44.029Z,67.08
2018-09-02T22:31:21.439Z,67.58
2018-09-02T22:33:57.578Z,66.59
2018-09-02T22:36:34.277Z,66.36
2018-09-02T22:39:10.253Z,66.85
2018-09-02T22:41:46.152Z,68.14
2018-09-02T22:44:21.964Z,68.58
2018-09-02T22:46:57.725Z,69.10
2018-09-02T22:49:34.464Z,69.41
2018-09-02T22:52:10.242Z,69.16
2018-09-02T22:54:45.941Z,68.97
2018-09-02T22:57:24.144Z,68.68
2018-09-02T23:00:00.304Z,68.68
2018-09-02T23:02:37.036Z,69.06
2018-09-02T23:05:16.693Z,68.92
2018-09-02T23:07:52.682Z,69.04
2018-09-02T23:10:28.485Z,68.96
2018-09-02T23:13:05.080Z,69.80
2018-09-02T23:15:41.086Z,70.16
2018-09-02T23:18:16.834Z,69.63
2018-09-02T23:20:53.208Z,69.40
2018-09-02T23:23:29.062Z,68.09
2018-09-02T23:26:05.346Z,67.47
2018-09-02T23:28:41.105Z,67.46
2018-09-02T23:31:18.114Z,67.57
2018-09-02T23:33:55.121Z,69.71
2018-09-02T23:36:34.085Z,72.55
2018-09-02T23:39:11.550Z,74.10
2018-09-02T23:41:47.455Z,72.85
2018-09-02T23:44:23.250Z,71.63
2018-09-02T23:46:59.388Z,70.21
2018-09-02T23:49:35.301Z,71.16
2018-09-02T23:52:14.346Z,71.45
2018-09-02T23:54:50.048Z,71.10
2018-09-02T23:57:25.915Z,70.57
